Time;durP1;ratioP1;P1;durP2;ratioP2;P2;SDS_P1;SDS_P2;PMS_P1;PMS_P2;Temp;Humidity;BMP_temperature;BMP_pressure;BME280_temperature;BME280_humidity;BME280_pressure;Samples;Min_cycle;Max_cycle;Signal;HPM_P1;HPM_P2
2022/10/17 00:00:24;;;;;;;10.77;6.10;;;;;;;;;;5140546;27;20110;-76
2022/10/17 00:03:10;;;;;;;9.88;6.00;;;;;;;;;;5154754;27;20022;-75
2022/10/17 00:05:58;;;;;;;11.13;7.82;;;;;;;;;;5154908;27;20097;-76
2022/10/17 00:08:44;;;;;;;14.07;10.45;;;;;;;;;;5154895;27;20109;-76
2022/10/17 00:11:29;;;;;;;17.35;11.25;;;;;;;;;;5155613;27;20130;-76
2022/10/17 00:14:15;;;;;;;21.70;13.93;;;;;;;;;;5155006;27;20037;-76
2022/10/17 00:17:00;;;;;;;21.08;13.00;;;;;;;;;;5156736;27;20014;-76
2022/10/17 00:19:46;;;;;;;18.58;12.75;;;;;;;;;;5159105;27;20030;-76
2022/10/17 00:22:32;;;;;;;19.73;12.95;;;;;;;;;;5162540;27;20459;-75
2022/10/17 00:25:17;;;;;;;20.25;12.13;;;;;;;;;;5174814;27;20022;-77
2022/10/17 00:28:03;;;;;;;21.15;12.45;;;;;;;;;;5159470;27;20029;-77
2022/10/17 00:30:54;;;;;;;15.43;11.30;;;;;;;;;;5159994;27;20451;-76
2022/10/17 00:33:40;;;;;;;18.38;10.90;;;;;;;;;;5159623;27;20014;-76
2022/10/17 00:36:25;;;;;;;17.02;10.90;;;;;;;;;;5158746;27;20038;-75
2022/10/17 00:39:11;;;;;;;16.92;10.85;;;;;;;;;;5158548;27;20011;-76
2022/10/17 00:41:56;;;;;;;16.27;10.50;;;;;;;;;;5158448;27;20098;-75
2022/10/17 00:44:45;;;;;;;18.23;10.43;;;;;;;;;;5158720;27;20455;-76
2022/10/17 00:47:31;;;;;;;13.43;10.27;;;;;;;;;;5157963;27;20022;-76
2022/10/17 00:50:18;;;;;;;18.33;9.98;;;;;;;;;;5158042;27;20390;-76
2022/10/17 00:53:04;;;;;;;15.05;8.93;;;;;;;;;;5159161;27;20107;-75
2022/10/17 00:55:51;;;;;;;13.82;9.18;;;;;;;;;;5158695;27;20011;-75
2022/10/17 00:58:37;;;;;;;21.40;10.02;;;;;;;;;;5162801;27;20074;-75
2022/10/17 01:01:22;;;;;;;15.57;9.23;;;;;;;;;;5167550;27;20023;-76
2022/10/17 01:04:09;;;;;;;13.15;8.70;;;;;;;;;;5143628;27;20072;-76
2022/10/17 01:06:54;;;;;;;12.20;8.07;;;;;;;;;;5157803;27;20022;-75
2022/10/17 01:09:40;;;;;;;12.98;8.27;;;;;;;;;;5157288;27;20006;-76
2022/10/17 01:12:45;;;;;;;15.13;8.80;;;;;;;;;;5142761;27;20021;-77
2022/10/17 01:15:47;;;;;;;14.43;8.07;;;;;;;;;;5142834;27;20019;-76
2022/10/17 01:18:55;;;;;;;14.10;8.10;;;;;;;;;;5142675;27;20062;-76
2022/10/17 01:21:52;;;;;;;14.48;7.97;;;;;;;;;;5157336;27;20445;-76
2022/10/17 01:24:44;;;;;;;13.82;7.90;;;;;;;;;;5157116;27;20029;-76
2022/10/17 01:27:47;;;;;;;13.65;8.40;;;;;;;;;;5157271;27;20022;-76
2022/10/17 01:30:45;;;;;;;11.98;8.63;;;;;;;;;;5142628;27;20038;-76
2022/10/17 01:33:36;;;;;;;15.63;9.40;;;;;;;;;;5156909;27;20027;-76
2022/10/17 01:36:36;;;;;;;13.73;9.43;;;;;;;;;;5142300;27;20046;-77
2022/10/17 01:39:25;;;;;;;12.77;8.90;;;;;;;;;;5142721;27;20023;-77
2022/10/17 01:42:33;;;;;;;15.85;9.02;;;;;;;;;;5157283;27;20023;-75
2022/10/17 01:45:42;;;;;;;13.88;9.13;;;;;;;;;;5157880;27;20022;-76
2022/10/17 01:48:34;;;;;;;14.40;9.68;;;;;;;;;;5156331;27;20023;-76
2022/10/17 01:51:28;;;;;;;17.48;10.40;;;;;;;;;;5157113;27;20019;-77
2022/10/17 01:54:22;;;;;;;16.70;10.20;;;;;;;;;;5156680;27;20046;-76
2022/10/17 01:57:10;;;;;;;12.90;9.88;;;;;;;;;;5156600;27;20105;-75
2022/10/17 01:59:56;;;;;;;16.58;9.85;;;;;;;;;;5156596;27;20023;-75
2022/10/17 02:02:43;;;;;;;16.52;10.75;;;;;;;;;;5157220;27;20078;-76
2022/10/17 02:05:35;;;;;;;20.10;9.88;;;;;;;;;;5141548;27;20436;-76
2022/10/17 02:08:27;;;;;;;16.58;9.80;;;;;;;;;;5156169;27;20022;-76
2022/10/17 02:11:21;;;;;;;15.35;9.70;;;;;;;;;;5156497;27;20064;-75
2022/10/17 02:14:18;;;;;;;15.90;9.10;;;;;;;;;;5157770;27;20101;-76
2022/10/17 02:17:23;;;;;;;17.42;9.60;;;;;;;;;;5141742;27;20015;-76
2022/10/17 02:20:28;;;;;;;16.50;10.02;;;;;;;;;;5156080;27;20071;-76
2022/10/17 02:23:14;;;;;;;15.00;10.48;;;;;;;;;;5153913;27;20035;-77
2022/10/17 02:26:05;;;;;;;17.10;10.90;;;;;;;;;;5140715;27;20026;-76
2022/10/17 02:28:50;;;;;;;30.17;11.73;;;;;;;;;;5155575;27;20023;-75
2022/10/17 02:31:48;;;;;;;22.85;11.65;;;;;;;;;;5156734;27;20444;-75
2022/10/17 02:34:41;;;;;;;26.83;11.32;;;;;;;;;;5156048;27;20027;-76
2022/10/17 02:37:28;;;;;;;20.90;10.95;;;;;;;;;;5155475;27;20046;-76
2022/10/17 02:40:16;;;;;;;18.73;10.63;;;;;;;;;;5140267;27;20070;-73
2022/10/17 02:43:01;;;;;;;18.27;10.82;;;;;;;;;;5140908;27;20027;-75
2022/10/17 02:45:47;;;;;;;24.08;11.32;;;;;;;;;;5155469;27;20019;-75
2022/10/17 02:48:35;;;;;;;16.38;10.23;;;;;;;;;;5140779;27;20121;-74
2022/10/17 02:51:31;;;;;;;16.10;10.02;;;;;;;;;;5155729;27;20015;-75
2022/10/17 02:54:22;;;;;;;19.15;10.57;;;;;;;;;;5140124;27;20071;-75
2022/10/17 02:57:14;;;;;;;17.60;10.60;;;;;;;;;;5156623;27;20070;-75
2022/10/17 03:00:01;;;;;;;18.02;10.82;;;;;;;;;;5155639;27;20023;-75
2022/10/17 03:02:48;;;;;;;17.95;10.90;;;;;;;;;;5155600;27;20030;-75
2022/10/17 03:05:33;;;;;;;19.70;11.27;;;;;;;;;;5156602;27;20022;-74
2022/10/17 03:08:19;;;;;;;24.08;11.35;;;;;;;;;;5155458;27;20023;-77
2022/10/17 03:11:05;;;;;;;26.75;14.07;;;;;;;;;;5140200;27;20031;-75
2022/10/17 03:13:51;;;;;;;28.67;16.20;;;;;;;;;;5140429;27;20014;-76
2022/10/17 03:16:36;;;;;;;28.27;15.48;;;;;;;;;;5155050;27;20037;-75
2022/10/17 03:19:22;;;;;;;27.38;16.20;;;;;;;;;;5155983;27;20034;-75
2022/10/17 03:22:07;;;;;;;24.90;15.07;;;;;;;;;;5140676;27;20392;-76
2022/10/17 03:24:53;;;;;;;29.60;14.65;;;;;;;;;;5155479;27;20029;-76
2022/10/17 03:27:38;;;;;;;29.15;15.05;;;;;;;;;;5155468;27;20503;-76
2022/10/17 03:30:24;;;;;;;24.23;14.88;;;;;;;;;;5170055;27;20023;-74
2022/10/17 03:33:10;;;;;;;25.85;15.48;;;;;;;;;;5151945;27;20026;-77
2022/10/17 03:35:55;;;;;;;32.38;19.80;;;;;;;;;;5155108;27;20046;-77
2022/10/17 03:38:41;;;;;;;34.90;18.25;;;;;;;;;;5154897;27;20027;-76
2022/10/17 03:41:27;;;;;;;28.58;15.30;;;;;;;;;;5155042;27;20079;-77
2022/10/17 03:44:12;;;;;;;23.17;14.20;;;;;;;;;;5156045;27;20040;-76
2022/10/17 03:46:58;;;;;;;25.33;14.32;;;;;;;;;;5154908;27;20102;-77
2022/10/17 03:49:44;;;;;;;24.45;13.55;;;;;;;;;;5155661;27;20023;-78
2022/10/17 03:52:29;;;;;;;22.65;13.00;;;;;;;;;;5154583;27;20019;-78
2022/10/17 03:55:15;;;;;;;21.50;12.80;;;;;;;;;;5155150;27;20030;-76
2022/10/17 03:58:01;;;;;;;22.45;13.32;;;;;;;;;;5139984;27;20023;-76
2022/10/17 04:00:47;;;;;;;21.83;13.32;;;;;;;;;;5155446;27;20068;-74
2022/10/17 04:03:32;;;;;;;26.25;13.32;;;;;;;;;;5140355;27;20359;-76
2022/10/17 04:06:18;;;;;;;23.52;13.57;;;;;;;;;;5157971;27;20074;-78
2022/10/17 04:09:05;;;;;;;29.92;14.20;;;;;;;;;;5140132;27;20019;-76
2022/10/17 04:11:50;;;;;;;23.60;13.35;;;;;;;;;;5155081;27;20030;-76
2022/10/17 04:14:36;;;;;;;28.92;15.68;;;;;;;;;;5140244;27;20043;-76
2022/10/17 04:17:22;;;;;;;35.75;15.40;;;;;;;;;;5155565;27;20047;-77
2022/10/17 04:20:08;;;;;;;33.25;16.45;;;;;;;;;;5139640;27;20030;-76
2022/10/17 04:22:53;;;;;;;24.50;14.88;;;;;;;;;;5155282;27;20324;-77
2022/10/17 04:25:39;;;;;;;21.23;12.60;;;;;;;;;;5155057;27;20034;-77
2022/10/17 04:28:25;;;;;;;19.10;12.10;;;;;;;;;;5154374;27;20030;-77
2022/10/17 04:31:11;;;;;;;20.45;12.40;;;;;;;;;;5154928;27;20025;-77
2022/10/17 04:33:57;;;;;;;18.23;12.13;;;;;;;;;;5154311;27;20061;-76
2022/10/17 04:36:43;;;;;;;18.20;11.25;;;;;;;;;;5155391;27;20107;-79
2022/10/17 04:39:28;;;;;;;18.27;11.77;;;;;;;;;;5154381;27;20065;-76
2022/10/17 04:42:14;;;;;;;21.83;12.23;;;;;;;;;;5154508;27;20030;-77
2022/10/17 04:45:00;;;;;;;20.10;12.55;;;;;;;;;;5154931;27;20066;-77
2022/10/17 04:47:45;;;;;;;21.75;12.82;;;;;;;;;;5154537;27;20026;-76
2022/10/17 04:50:31;;;;;;;18.15;12.35;;;;;;;;;;5156294;27;20343;-78
2022/10/17 04:53:16;;;;;;;27.38;13.85;;;;;;;;;;5156672;27;20359;-77
2022/10/17 04:56:13;;;;;;;20.15;12.45;;;;;;;;;;5156332;27;20023;-78
2022/10/17 04:58:59;;;;;;;26.00;12.88;;;;;;;;;;5140443;27;20019;-76
2022/10/17 05:01:44;;;;;;;24.30;13.10;;;;;;;;;;5126638;27;20079;-77
2022/10/17 05:04:30;;;;;;;20.55;12.63;;;;;;;;;;5157107;27;20388;-76
2022/10/17 05:07:15;;;;;;;28.65;13.30;;;;;;;;;;5159671;27;20027;-77
2022/10/17 05:10:01;;;;;;;19.77;13.02;;;;;;;;;;5158986;27;20114;-78
2022/10/17 05:12:47;;;;;;;18.90;11.50;;;;;;;;;;5157712;27;20022;-77
2022/10/17 05:15:33;;;;;;;19.58;12.75;;;;;;;;;;5143333;27;20371;-76
2022/10/17 05:18:18;;;;;;;20.38;12.88;;;;;;;;;;5157745;27;20109;-77
2022/10/17 05:21:04;;;;;;;22.98;12.95;;;;;;;;;;5157720;27;20026;-74
2022/10/17 05:23:50;;;;;;;31.70;15.45;;;;;;;;;;5158279;27;20022;-73
2022/10/17 05:26:35;;;;;;;23.65;15.57;;;;;;;;;;5157456;27;20023;-75
2022/10/17 05:29:21;;;;;;;23.85;15.82;;;;;;;;;;5156771;27;20027;-76
2022/10/17 05:32:07;;;;;;;29.98;14.48;;;;;;;;;;5158144;27;20446;-75
2022/10/17 05:34:52;;;;;;;24.05;15.38;;;;;;;;;;5157628;27;20528;-75
2022/10/17 05:37:38;;;;;;;25.00;14.60;;;;;;;;;;5157182;27;20081;-73
2022/10/17 05:40:24;;;;;;;25.20;15.05;;;;;;;;;;5157704;27;20037;-75
2022/10/17 05:43:09;;;;;;;24.38;14.70;;;;;;;;;;5156655;27;20018;-76
2022/10/17 05:45:55;;;;;;;32.35;16.13;;;;;;;;;;5156922;27;20026;-74
2022/10/17 05:48:41;;;;;;;29.95;15.63;;;;;;;;;;5141239;27;20034;-74
2022/10/17 05:51:26;;;;;;;25.80;15.57;;;;;;;;;;5156844;27;20048;-74
2022/10/17 05:54:12;;;;;;;29.65;16.42;;;;;;;;;;5156792;27;20033;-74
2022/10/17 05:56:57;;;;;;;28.30;15.48;;;;;;;;;;5157154;27;20014;-74
2022/10/17 05:59:43;;;;;;;34.85;15.77;;;;;;;;;;5156449;27;20019;-74
2022/10/17 06:02:29;;;;;;;29.58;15.80;;;;;;;;;;5156822;27;20101;-74
2022/10/17 06:05:14;;;;;;;25.60;16.60;;;;;;;;;;5157207;27;20033;-75
2022/10/17 06:08:00;;;;;;;29.70;15.15;;;;;;;;;;5156723;27;20025;-73
2022/10/17 06:10:47;;;;;;;30.38;15.68;;;;;;;;;;5156729;27;20027;-75
2022/10/17 06:13:33;;;;;;;28.40;15.43;;;;;;;;;;5141323;27;20083;-74
2022/10/17 06:16:18;;;;;;;29.35;15.35;;;;;;;;;;5156420;27;20014;-74
2022/10/17 06:19:04;;;;;;;31.05;16.42;;;;;;;;;;5156979;27;20023;-74
2022/10/17 06:21:50;;;;;;;29.60;16.48;;;;;;;;;;5157003;27;20508;-74
2022/10/17 06:24:35;;;;;;;27.85;15.27;;;;;;;;;;5156920;27;20115;-75
2022/10/17 06:27:21;;;;;;;29.67;16.05;;;;;;;;;;5156855;27;20042;-75
2022/10/17 06:30:07;;;;;;;28.90;15.43;;;;;;;;;;5156615;27;20018;-73
2022/10/17 06:32:52;;;;;;;26.00;14.85;;;;;;;;;;5155862;27;20011;-77
2022/10/17 06:35:38;;;;;;;24.00;13.90;;;;;;;;;;5140623;27;20026;-75
2022/10/17 06:38:24;;;;;;;33.22;17.20;;;;;;;;;;5115792;28;20035;-76
2022/10/17 06:41:12;;;;;;;31.80;17.35;;;;;;;;;;5128459;27;20024;-75
2022/10/17 06:43:58;;;;;;;25.70;16.42;;;;;;;;;;5114545;28;20026;-74
2022/10/17 06:46:43;;;;;;;30.95;17.45;;;;;;;;;;5115190;28;20525;-73
2022/10/17 06:49:29;;;;;;;29.95;16.45;;;;;;;;;;5114375;28;20076;-73
2022/10/17 06:52:16;;;;;;;30.05;17.58;;;;;;;;;;5115713;28;20023;-74
2022/10/17 06:55:01;;;;;;;26.98;15.98;;;;;;;;;;5113431;28;20020;-74
2022/10/17 06:57:47;;;;;;;30.65;16.67;;;;;;;;;;5115512;28;20011;-73
2022/10/17 07:00:32;;;;;;;31.20;17.02;;;;;;;;;;5127677;27;20449;-75
2022/10/17 07:03:18;;;;;;;26.70;16.38;;;;;;;;;;5127489;27;20024;-76
2022/10/17 07:06:04;;;;;;;26.63;16.42;;;;;;;;;;5115224;28;20076;-76
2022/10/17 07:08:49;;;;;;;31.45;16.80;;;;;;;;;;5114539;28;20027;-76
2022/10/17 07:11:35;;;;;;;27.02;16.30;;;;;;;;;;5114109;28;20012;-75
2022/10/17 07:14:21;;;;;;;31.70;16.48;;;;;;;;;;5114869;28;20095;-75
2022/10/17 07:17:06;;;;;;;28.48;16.63;;;;;;;;;;5114606;28;20116;-75
2022/10/17 07:19:52;;;;;;;26.38;17.05;;;;;;;;;;5114176;28;20444;-75
2022/10/17 07:22:37;;;;;;;27.75;17.23;;;;;;;;;;5113539;28;20027;-75
2022/10/17 07:25:23;;;;;;;30.45;16.77;;;;;;;;;;5114081;28;20095;-75
2022/10/17 07:28:09;;;;;;;33.20;19.52;;;;;;;;;;5113463;28;20016;-77
2022/10/17 07:30:54;;;;;;;28.98;17.83;;;;;;;;;;5114854;28;20434;-76
2022/10/17 07:33:40;;;;;;;27.70;17.25;;;;;;;;;;5113741;28;20012;-77
2022/10/17 07:36:26;;;;;;;25.77;16.50;;;;;;;;;;5122950;27;20039;-77
2022/10/17 07:39:12;;;;;;;28.30;17.10;;;;;;;;;;5155956;27;20019;-75
2022/10/17 07:41:57;;;;;;;26.58;16.33;;;;;;;;;;5154632;27;20066;-76
2022/10/17 07:44:46;;;;;;;25.42;15.68;;;;;;;;;;5154951;27;20018;-76
2022/10/17 07:47:34;;;;;;;28.45;17.92;;;;;;;;;;5155051;27;20037;-76
2022/10/17 07:50:20;;;;;;;30.23;16.95;;;;;;;;;;5154429;27;20026;-76
2022/10/17 07:53:05;;;;;;;26.55;14.98;;;;;;;;;;5155198;27;20011;-76
2022/10/17 07:55:51;;;;;;;22.20;12.18;;;;;;;;;;5154706;27;20027;-75
2022/10/17 07:58:36;;;;;;;23.85;13.38;;;;;;;;;;5155443;27;20393;-74
2022/10/17 08:01:24;;;;;;;23.48;13.48;;;;;;;;;;5154128;27;20056;-75
2022/10/17 08:04:10;;;;;;;25.77;14.25;;;;;;;;;;5155174;27;20033;-75
2022/10/17 08:06:55;;;;;;;36.75;18.65;;;;;;;;;;5155150;27;20436;-76
2022/10/17 08:09:42;;;;;;;22.08;15.30;;;;;;;;;;5155141;27;20038;-75
2022/10/17 08:12:30;;;;;;;27.65;15.45;;;;;;;;;;5139840;27;20025;-76
2022/10/17 08:15:16;;;;;;;20.90;14.10;;;;;;;;;;5154064;27;20015;-76
2022/10/17 08:18:02;;;;;;;23.05;13.30;;;;;;;;;;5154467;27;20007;-76
2022/10/17 08:20:47;;;;;;;26.67;16.08;;;;;;;;;;5156204;27;20033;-76
2022/10/17 08:23:33;;;;;;;28.08;14.43;;;;;;;;;;5154850;27;20083;-76
2022/10/17 08:26:19;;;;;;;27.17;14.50;;;;;;;;;;5154187;27;20033;-77
2022/10/17 08:29:04;;;;;;;21.38;13.73;;;;;;;;;;5155342;27;20329;-74
2022/10/17 08:31:51;;;;;;;20.65;13.45;;;;;;;;;;5153217;27;20445;-75
2022/10/17 08:34:37;;;;;;;24.73;12.52;;;;;;;;;;5154280;27;20015;-76
2022/10/17 08:37:22;;;;;;;24.20;13.40;;;;;;;;;;5153575;27;20106;-75
2022/10/17 08:40:17;;;;;;;25.00;13.57;;;;;;;;;;5158793;27;20041;-77
2022/10/17 08:43:09;;;;;;;25.30;13.00;;;;;;;;;;5158976;27;20018;-76
2022/10/17 08:46:01;;;;;;;25.10;14.35;;;;;;;;;;5159096;27;20022;-75
2022/10/17 08:48:48;;;;;;;19.23;12.90;;;;;;;;;;5159030;27;20118;-75
2022/10/17 08:51:36;;;;;;;21.00;12.73;;;;;;;;;;5160583;27;20042;-76
2022/10/17 08:54:30;;;;;;;21.17;12.40;;;;;;;;;;5166736;27;20011;-75
2022/10/17 08:57:16;;;;;;;25.25;11.75;;;;;;;;;;5163410;27;20014;-77
2022/10/17 09:00:01;;;;;;;24.27;11.68;;;;;;;;;;5164832;27;20388;-76
2022/10/17 09:03:09;;;;;;;17.85;11.73;;;;;;;;;;5159812;27;20026;-75
2022/10/17 09:06:08;;;;;;;21.52;10.52;;;;;;;;;;5155847;27;20074;-74
2022/10/17 09:09:12;;;;;;;14.27;7.93;;;;;;;;;;5160279;27;20019;-75
2022/10/17 09:12:19;;;;;;;12.30;6.80;;;;;;;;;;5157985;27;20019;-77
2022/10/17 09:15:24;;;;;;;11.93;6.82;;;;;;;;;;5161285;27;20018;-75
2022/10/17 09:18:10;;;;;;;10.45;5.50;;;;;;;;;;5156206;27;20015;-75
2022/10/17 09:20:59;;;;;;;9.98;4.68;;;;;;;;;;5155716;27;20046;-74
2022/10/17 09:23:50;;;;;;;12.05;5.25;;;;;;;;;;5157996;27;20386;-75
2022/10/17 09:26:38;;;;;;;13.90;4.68;;;;;;;;;;5157136;27;20019;-75
2022/10/17 09:29:24;;;;;;;9.85;5.80;;;;;;;;;;5142831;27;20023;-76
2022/10/17 09:32:13;;;;;;;8.10;5.00;;;;;;;;;;5158035;27;20422;-76
2022/10/17 09:34:59;;;;;;;8.60;5.43;;;;;;;;;;5157908;27;20081;-74
2022/10/17 09:37:45;;;;;;;7.70;4.45;;;;;;;;;;5142477;27;20107;-74
2022/10/17 09:40:33;;;;;;;11.70;5.38;;;;;;;;;;5159271;27;20022;-73
2022/10/17 09:43:19;;;;;;;11.25;4.90;;;;;;;;;;5141695;27;20042;-73
2022/10/17 09:46:07;;;;;;;7.15;3.83;;;;;;;;;;5157921;27;20067;-74
2022/10/17 09:48:57;;;;;;;4.43;3.45;;;;;;;;;;5156998;27;20107;-74
2022/10/17 09:51:43;;;;;;;5.43;3.53;;;;;;;;;;5158160;27;20096;-74
2022/10/17 09:54:35;;;;;;;9.40;4.65;;;;;;;;;;5157642;27;20015;-74
2022/10/17 09:57:21;;;;;;;9.50;4.90;;;;;;;;;;5156974;27;20026;-72
2022/10/17 10:00:06;;;;;;;5.57;4.53;;;;;;;;;;5158378;27;20352;-75
2022/10/17 10:03:09;;;;;;;7.22;4.80;;;;;;;;;;5146057;27;20027;-72
2022/10/17 10:06:02;;;;;;;7.45;3.60;;;;;;;;;;5147308;27;20026;-73
2022/10/17 10:08:48;;;;;;;9.95;3.90;;;;;;;;;;5167578;27;20367;-73
2022/10/17 10:11:52;;;;;;;10.18;4.78;;;;;;;;;;5157557;27;20436;-73
2022/10/17 10:14:39;;;;;;;6.00;3.80;;;;;;;;;;5157159;27;20105;-73
2022/10/17 10:17:32;;;;;;;6.35;3.80;;;;;;;;;;5156109;27;20101;-73
2022/10/17 10:20:38;;;;;;;5.68;3.80;;;;;;;;;;5156950;27;20025;-73
2022/10/17 10:23:23;;;;;;;7.38;3.47;;;;;;;;;;5156740;27;20025;-73
2022/10/17 10:26:12;;;;;;;4.90;3.28;;;;;;;;;;5156213;27;20407;-74
2022/10/17 10:28:59;;;;;;;5.70;4.10;;;;;;;;;;5157433;27;20023;-74
2022/10/17 10:31:46;;;;;;;9.77;4.57;;;;;;;;;;5156325;27;20025;-73
2022/10/17 10:34:34;;;;;;;19.15;6.15;;;;;;;;;;5156032;27;20116;-74
2022/10/17 10:37:42;;;;;;;9.00;4.72;;;;;;;;;;5156246;27;20156;-74
2022/10/17 10:40:33;;;;;;;13.77;5.05;;;;;;;;;;5140750;27;20034;-74
2022/10/17 10:43:25;;;;;;;9.90;3.90;;;;;;;;;;5141722;27;20022;-73
2022/10/17 10:46:37;;;;;;;6.85;4.35;;;;;;;;;;5141360;27;20452;-74
2022/10/17 10:49:28;;;;;;;9.73;4.07;;;;;;;;;;5155786;27;20042;-74
2022/10/17 10:52:18;;;;;;;11.23;4.35;;;;;;;;;;5155346;27;20348;-74
2022/10/17 10:55:13;;;;;;;7.15;4.35;;;;;;;;;;5156316;27;20321;-73
2022/10/17 10:58:02;;;;;;;9.40;4.97;;;;;;;;;;5155555;27;20125;-74
2022/10/17 11:00:48;;;;;;;7.10;4.57;;;;;;;;;;5155611;27;20014;-73
2022/10/17 11:03:44;;;;;;;10.52;5.10;;;;;;;;;;5157042;27;20348;-73
2022/10/17 11:06:33;;;;;;;10.40;4.97;;;;;;;;;;5155969;27;20080;-74
2022/10/17 11:09:24;;;;;;;9.27;4.65;;;;;;;;;;5141072;27;20034;-73
2022/10/17 11:12:12;;;;;;;8.48;4.93;;;;;;;;;;5141152;27;20058;-73
2022/10/17 11:15:21;;;;;;;8.85;5.25;;;;;;;;;;5156417;27;20329;-73
2022/10/17 11:18:15;;;;;;;12.18;4.65;;;;;;;;;;5154182;27;20018;-73
2022/10/17 11:21:03;;;;;;;8.60;4.25;;;;;;;;;;5155096;27;20014;-74
2022/10/17 11:23:52;;;;;;;8.00;4.13;;;;;;;;;;5155556;27;20029;-73
2022/10/17 11:26:40;;;;;;;8.02;4.28;;;;;;;;;;5154593;27;20015;-71
2022/10/17 11:29:32;;;;;;;8.35;4.13;;;;;;;;;;5155362;27;20026;-72
2022/10/17 11:32:20;;;;;;;6.35;4.18;;;;;;;;;;5155962;27;20015;-72
2022/10/17 11:35:13;;;;;;;14.27;4.80;;;;;;;;;;5154952;27;20018;-72
2022/10/17 11:38:17;;;;;;;8.05;4.60;;;;;;;;;;5154833;27;20038;-72
2022/10/17 11:41:03;;;;;;;9.93;4.10;;;;;;;;;;5155525;27;20019;-72
2022/10/17 11:43:52;;;;;;;10.10;4.20;;;;;;;;;;5137511;27;20043;-72
2022/10/17 11:46:38;;;;;;;10.65;4.07;;;;;;;;;;5155942;27;20432;-73
2022/10/17 11:49:27;;;;;;;9.13;4.53;;;;;;;;;;5140002;27;20030;-73
2022/10/17 11:52:31;;;;;;;13.07;4.43;;;;;;;;;;5154835;27;20074;-73
2022/10/17 11:55:19;;;;;;;6.30;3.92;;;;;;;;;;5155118;27;20011;-72
2022/10/17 11:58:14;;;;;;;11.25;5.68;;;;;;;;;;5155005;27;20007;-74
2022/10/17 12:01:14;;;;;;;9.85;4.65;;;;;;;;;;5154704;27;20018;-73
2022/10/17 12:04:05;;;;;;;6.00;3.70;;;;;;;;;;5154370;27;20018;-72
2022/10/17 12:06:59;;;;;;;7.13;3.38;;;;;;;;;;5155422;27;20023;-74
2022/10/17 12:09:56;;;;;;;9.45;4.05;;;;;;;;;;5139846;27;20026;-74
2022/10/17 12:12:42;;;;;;;9.90;4.07;;;;;;;;;;5155635;27;20015;-72
2022/10/17 12:15:28;;;;;;;11.18;4.00;;;;;;;;;;5158440;27;20083;-73
2022/10/17 12:18:16;;;;;;;7.78;3.30;;;;;;;;;;5158417;27;20048;-72
2022/10/17 12:21:02;;;;;;;7.43;3.65;;;;;;;;;;5159276;27;20022;-72
2022/10/17 12:23:51;;;;;;;5.03;3.30;;;;;;;;;;5157898;27;20428;-72
2022/10/17 12:26:37;;;;;;;5.35;3.35;;;;;;;;;;5158502;27;20029;-72
2022/10/17 12:29:27;;;;;;;5.28;3.60;;;;;;;;;;5158740;27;20078;-72
2022/10/17 12:32:13;;;;;;;7.30;3.80;;;;;;;;;;5159852;27;20019;-72
2022/10/17 12:34:59;;;;;;;4.35;3.38;;;;;;;;;;5158034;27;20339;-72
2022/10/17 12:38:05;;;;;;;6.68;4.30;;;;;;;;;;5158585;27;20384;-71
2022/10/17 12:40:52;;;;;;;6.32;3.58;;;;;;;;;;5156872;27;20043;-72
2022/10/17 12:43:53;;;;;;;10.05;3.08;;;;;;;;;;5158591;27;20152;-71
2022/10/17 12:46:42;;;;;;;5.13;3.33;;;;;;;;;;5143267;27;20022;-74
2022/10/17 12:49:47;;;;;;;5.80;3.10;;;;;;;;;;5143802;27;20030;-73
2022/10/17 12:52:33;;;;;;;5.10;2.88;;;;;;;;;;5157324;27;20565;-72
2022/10/17 12:55:23;;;;;;;4.25;2.80;;;;;;;;;;5158913;27;20105;-71
2022/10/17 12:58:13;;;;;;;3.70;2.83;;;;;;;;;;5158087;27;20500;-74
2022/10/17 13:00:59;;;;;;;6.75;3.08;;;;;;;;;;5157956;27;20029;-73
2022/10/17 13:03:46;;;;;;;6.57;3.00;;;;;;;;;;5142543;27;20352;-73
2022/10/17 13:06:39;;;;;;;9.35;3.15;;;;;;;;;;5157534;27;20031;-72
2022/10/17 13:09:26;;;;;;;9.38;3.60;;;;;;;;;;5157151;27;20090;-72
2022/10/17 13:12:14;;;;;;;5.72;3.45;;;;;;;;;;5142142;27;20006;-73
2022/10/17 13:15:02;;;;;;;4.03;3.35;;;;;;;;;;5158077;27;20344;-72
2022/10/17 13:17:54;;;;;;;5.40;3.47;;;;;;;;;;5157428;27;20030;-71
2022/10/17 13:20:40;;;;;;;7.75;4.22;;;;;;;;;;5156903;27;20027;-73
2022/10/17 13:23:28;;;;;;;6.88;3.65;;;;;;;;;;5157425;27;20087;-73
2022/10/17 13:26:18;;;;;;;4.40;3.00;;;;;;;;;;5157701;27;20149;-72
2022/10/17 13:29:04;;;;;;;13.70;4.05;;;;;;;;;;5156957;27;20027;-73
2022/10/17 13:31:52;;;;;;;8.95;3.38;;;;;;;;;;5157796;27;20440;-73
2022/10/17 13:34:37;;;;;;;4.93;3.22;;;;;;;;;;5156952;27;20019;-74
2022/10/17 13:37:23;;;;;;;5.68;3.60;;;;;;;;;;5156710;27;20126;-72
2022/10/17 13:40:15;;;;;;;4.20;2.95;;;;;;;;;;5158512;27;20029;-71
2022/10/17 13:43:10;;;;;;;5.30;3.10;;;;;;;;;;5156670;27;20180;-71
2022/10/17 13:46:00;;;;;;;4.93;3.40;;;;;;;;;;5157036;27;20433;-70
2022/10/17 13:48:46;;;;;;;5.13;3.40;;;;;;;;;;5157635;27;20039;-70
2022/10/17 13:51:32;;;;;;;6.13;3.40;;;;;;;;;;5157385;27;20027;-71
2022/10/17 13:54:26;;;;;;;5.75;3.60;;;;;;;;;;5141214;27;20022;-71
2022/10/17 13:57:21;;;;;;;7.60;3.28;;;;;;;;;;5156679;27;20428;-70
2022/10/17 14:00:19;;;;;;;5.28;3.10;;;;;;;;;;5156695;27;20029;-70
2022/10/17 14:03:04;;;;;;;6.78;3.50;;;;;;;;;;5157067;27;20046;-71
2022/10/17 14:06:10;;;;;;;4.35;2.85;;;;;;;;;;5157023;27;20041;-71
2022/10/17 14:09:00;;;;;;;7.55;3.50;;;;;;;;;;5141992;27;20023;-70
2022/10/17 14:11:56;;;;;;;7.88;2.90;;;;;;;;;;5158042;27;20436;-71
2022/10/17 14:14:46;;;;;;;4.90;2.90;;;;;;;;;;5156979;27;20046;-71
2022/10/17 14:17:32;;;;;;;3.97;2.65;;;;;;;;;;5158062;27;20065;-71
2022/10/17 14:20:19;;;;;;;5.35;3.20;;;;;;;;;;5159530;27;20027;-71
2022/10/17 14:23:24;;;;;;;7.68;3.42;;;;;;;;;;5167592;27;20087;-70
2022/10/17 14:26:19;;;;;;;9.30;3.55;;;;;;;;;;5156251;27;20030;-71
2022/10/17 14:29:19;;;;;;;6.85;3.30;;;;;;;;;;5156851;27;20042;-70
2022/10/17 14:32:09;;;;;;;9.32;3.60;;;;;;;;;;5156970;27;20101;-71
2022/10/17 14:34:55;;;;;;;5.32;3.38;;;;;;;;;;5157529;27;20083;-71
2022/10/17 14:37:43;;;;;;;5.65;3.70;;;;;;;;;;5154881;27;20053;-71
2022/10/17 14:40:29;;;;;;;6.10;3.70;;;;;;;;;;5155986;27;20103;-72
2022/10/17 14:43:19;;;;;;;8.00;3.90;;;;;;;;;;5142136;27;20037;-70
2022/10/17 14:46:05;;;;;;;11.00;4.90;;;;;;;;;;5159318;27;20027;-73
2022/10/17 14:48:52;;;;;;;8.27;4.40;;;;;;;;;;5156424;27;20022;-73
2022/10/17 14:51:38;;;;;;;9.80;4.25;;;;;;;;;;5159525;27;20327;-70
2022/10/17 14:54:28;;;;;;;10.32;4.28;;;;;;;;;;5172888;27;20022;-70
2022/10/17 14:57:28;;;;;;;12.48;4.20;;;;;;;;;;5141419;27;20067;-71
2022/10/17 15:00:15;;;;;;;11.95;4.65;;;;;;;;;;5154827;27;20065;-71
2022/10/17 15:03:00;;;;;;;13.68;6.00;;;;;;;;;;5155730;27;20034;-71
2022/10/17 15:05:46;;;;;;;15.43;5.47;;;;;;;;;;5155452;27;20118;-70
2022/10/17 15:08:32;;;;;;;13.80;5.00;;;;;;;;;;5155455;27;20114;-69
2022/10/17 15:11:17;;;;;;;22.85;5.75;;;;;;;;;;5155521;27;20023;-71
2022/10/17 15:14:03;;;;;;;8.85;4.43;;;;;;;;;;5141465;27;20103;-71
2022/10/17 15:16:49;;;;;;;17.42;6.05;;;;;;;;;;5140344;27;20010;-71
2022/10/17 15:19:34;;;;;;;19.77;6.00;;;;;;;;;;5155491;27;20029;-70
2022/10/17 15:22:20;;;;;;;14.90;5.53;;;;;;;;;;5140773;27;20021;-70
2022/10/17 15:25:06;;;;;;;10.68;5.47;;;;;;;;;;5140098;27;20022;-70
2022/10/17 15:27:52;;;;;;;19.08;5.82;;;;;;;;;;5155623;27;20031;-69
2022/10/17 15:30:37;;;;;;;16.23;7.00;;;;;;;;;;5140080;27;20028;-71
2022/10/17 15:33:23;;;;;;;19.20;7.55;;;;;;;;;;5139786;27;20015;-70
2022/10/17 15:36:18;;;;;;;18.70;8.20;;;;;;;;;;5154566;27;20019;-72
2022/10/17 15:39:04;;;;;;;24.10;8.27;;;;;;;;;;5155646;27;20058;-70
2022/10/17 15:41:49;;;;;;;28.58;9.05;;;;;;;;;;5154644;27;20436;-73
2022/10/17 15:44:35;;;;;;;20.92;9.20;;;;;;;;;;5141117;27;20332;-71
2022/10/17 15:47:23;;;;;;;48.55;20.33;;;;;;;;;;5154598;27;20451;-72
2022/10/17 15:50:15;;;;;;;58.47;29.10;;;;;;;;;;5140636;27;20058;-71
2022/10/17 15:53:01;;;;;;;46.88;19.13;;;;;;;;;;5154886;27;20029;-71
2022/10/17 15:55:49;;;;;;;36.25;19.23;;;;;;;;;;5155214;27;20015;-70
2022/10/17 15:58:36;;;;;;;35.72;17.27;;;;;;;;;;5154994;27;20029;-70
2022/10/17 16:01:24;;;;;;;41.00;15.75;;;;;;;;;;5155039;27;20495;-72
2022/10/17 16:04:14;;;;;;;37.20;15.38;;;;;;;;;;5154254;27;20019;-71
2022/10/17 16:07:00;;;;;;;36.42;15.73;;;;;;;;;;5154109;27;20073;-71
2022/10/17 16:09:45;;;;;;;38.78;15.27;;;;;;;;;;5154946;27;20019;-71
2022/10/17 16:12:35;;;;;;;62.30;18.30;;;;;;;;;;5155144;27;20011;-71
2022/10/17 16:15:22;;;;;;;95.57;32.60;;;;;;;;;;5155203;27;20023;-72
2022/10/17 16:18:08;;;;;;;96.68;36.97;;;;;;;;;;5155208;27;20367;-70
2022/10/17 16:20:54;;;;;;;79.93;32.53;;;;;;;;;;5139392;27;20015;-69
2022/10/17 16:23:40;;;;;;;87.93;38.45;;;;;;;;;;5155215;27;20034;-69
2022/10/17 16:26:26;;;;;;;83.30;34.60;;;;;;;;;;5139606;27;20029;-71
2022/10/17 16:29:11;;;;;;;61.65;25.75;;;;;;;;;;5154610;27;20019;-69
2022/10/17 16:31:57;;;;;;;58.05;23.05;;;;;;;;;;5155162;27;20011;-71